Rodby, Denmark
Current Conditions -  °F | °C
As of 5:20 AM on Wednesday 26 Nov 2014 (Local Time) from EKAV Reporting Station
Clear Clear  
Wind Chill: 44°   Ceiling: Unl
Heat Index: 46°   Visibility: 6mi
Dew Point: 39°   Wind: 6mph
Humidity: 76%   Direction: 190°S
Pressure: 30.27"   Gusts: NA
Location:  54.69°N, 11.39°E
Report Text: EKAV 260420Z AUTO 19005KT 9999NDV NCD 08/04 Q1025
Loading
Personal Weather Stations






























Interactive Weather Map New forecast layout! Learn more

10-Day Weather Forecast

Advertisements
Track Severe Weather on mobile